Time;durP1;ratioP1;P1;durP2;ratioP2;P2;SDS_P1;SDS_P2;PMS_P1;PMS_P2;Temp;Humidity;BMP_temperature;BMP_pressure;BME280_temperature;BME280_humidity;BME280_pressure;Samples;Min_cycle;Max_cycle;Signal;HPM_P1;HPM_P2
2024/04/01 00:02:45;;;;;;;11.07;3.87;;;;;;;17.48;51.99;96567.66;6844219;28;20312;-82
2024/04/01 00:06:08;;;;;;;7.50;2.80;;;;;;;17.53;51.59;96570.28;6844858;28;20249;-81
2024/04/01 00:09:29;;;;;;;9.57;3.13;;;;;;;17.69;51.16;96563.41;6843421;28;20308;-81
2024/04/01 00:12:50;;;;;;;5.17;3.10;;;;;;;17.91;50.64;96557.22;6840081;28;20214;-82
2024/04/01 00:16:11;;;;;;;6.83;2.80;;;;;;;17.74;50.66;96541.50;6838839;28;20302;-83
2024/04/01 00:19:33;;;;;;;7.63;2.70;;;;;;;17.84;50.93;96554.09;6835262;28;20237;-83
2024/04/01 00:22:58;;;;;;;7.53;2.60;;;;;;;18.06;50.30;96554.16;6837526;28;20220;-82
2024/04/01 00:26:18;;;;;;;9.23;2.73;;;;;;;17.98;50.73;96554.91;6836833;28;20213;-83
2024/04/01 00:29:40;;;;;;;10.53;3.20;;;;;;;17.88;50.88;96549.66;6835729;28;20250;-83
2024/04/01 00:33:03;;;;;;;5.40;2.70;;;;;;;17.84;51.10;96545.91;6840825;28;20233;-81
2024/04/01 00:36:25;;;;;;;7.57;2.93;;;;;;;17.65;51.46;96513.38;6843340;28;20297;-81
2024/04/01 00:39:48;;;;;;;7.10;2.77;;;;;;;17.92;50.92;96524.19;6824018;28;20241;-81
2024/04/01 00:43:10;;;;;;;9.80;2.67;;;;;;;17.72;51.73;96511.03;6817741;29;20702;-81
2024/04/01 00:46:31;;;;;;;7.53;3.20;;;;;;;17.48;51.82;96494.09;6836277;29;20205;-80
2024/04/01 00:49:52;;;;;;;9.53;3.00;;;;;;;17.70;51.48;96504.25;6843874;28;20256;-81
2024/04/01 00:53:14;;;;;;;6.33;2.77;;;;;;;17.42;52.37;96492.59;6836762;28;20217;-83
2024/04/01 00:56:37;;;;;;;8.33;3.30;;;;;;;17.10;51.69;96410.19;6837260;28;20213;-81
2024/04/01 00:59:59;;;;;;;6.30;2.60;;;;;;;16.59;54.58;96448.50;6841757;28;20277;-81
2024/04/01 01:03:20;;;;;;;5.93;2.67;;;;;;;17.70;51.32;96453.28;6843811;28;20206;-81
2024/04/01 01:06:42;;;;;;;7.97;2.83;;;;;;;17.82;51.42;96450.03;6839817;28;20260;-82
2024/04/01 01:10:05;;;;;;;7.83;2.40;;;;;;;17.03;53.19;96426.94;6834621;28;20615;-83
2024/04/01 01:13:27;;;;;;;5.90;2.40;;;;;;;16.73;54.66;96419.38;6836791;28;20217;-83
2024/04/01 01:16:49;;;;;;;12.53;3.13;;;;;;;17.10;53.34;96411.00;6836279;28;20609;-83
2024/04/01 01:20:11;;;;;;;10.23;3.13;;;;;;;17.47;52.59;96388.16;6836283;28;20316;-82
2024/04/01 01:23:34;;;;;;;7.73;2.50;;;;;;;17.25;52.81;96348.06;6838506;28;20214;-81
2024/04/01 01:26:55;;;;;;;7.80;2.60;;;;;;;17.06;53.41;96314.72;6841279;28;20704;-81
2024/04/01 01:30:16;;;;;;;5.67;2.47;;;;;;;17.46;52.69;96342.97;6841297;28;20253;-83
2024/04/01 01:33:37;;;;;;;8.83;3.43;;;;;;;17.09;53.87;96343.22;6837650;28;20300;-81
2024/04/01 01:36:58;;;;;;;5.03;2.70;;;;;;;17.23;53.42;96357.63;6836375;28;20210;-83
2024/04/01 01:40:21;;;;;;;7.90;2.57;;;;;;;17.28;52.87;96338.47;6835409;28;20317;-83
2024/04/01 01:43:44;;;;;;;6.13;3.33;;;;;;;17.45;52.98;96368.59;6836112;28;20577;-83
2024/04/01 01:47:04;;;;;;;10.67;2.40;;;;;;;17.17;53.25;96342.53;6838085;28;20304;-81
2024/04/01 01:50:26;;;;;;;10.67;2.93;;;;;;;17.45;53.15;96372.13;6844778;28;20645;-81
2024/04/01 01:53:46;;;;;;;6.57;3.10;;;;;;;17.48;52.74;96371.53;6844233;28;20206;-81
2024/04/01 01:57:09;;;;;;;8.30;3.00;;;;;;;17.17;53.79;96359.66;6841420;28;20216;-83
2024/04/01 02:00:31;;;;;;;7.63;2.33;;;;;;;17.00;53.99;96354.06;6840559;28;20325;-83
2024/04/01 02:03:52;;;;;;;7.67;2.80;;;;;;;16.50;55.31;96344.19;6841003;28;20311;-81
2024/04/01 02:07:14;;;;;;;7.00;2.60;;;;;;;16.43;55.86;96351.94;6842094;28;20284;-83
2024/04/01 02:10:36;;;;;;;6.40;2.77;;;;;;;17.07;53.85;96389.84;6814734;29;20391;-83
2024/04/01 02:13:58;;;;;;;11.83;3.07;;;;;;;16.91;54.33;96385.00;6813956;29;20203;-83
2024/04/01 02:17:19;;;;;;;8.10;2.73;;;;;;;16.84;54.09;96379.16;6814175;29;20357;-83
2024/04/01 02:20:43;;;;;;;7.10;2.60;;;;;;;16.89;54.26;96374.44;6829888;29;20232;-82
2024/04/01 02:24:06;;;;;;;6.90;2.80;;;;;;;16.98;53.28;96339.94;6842565;28;20202;-82
2024/04/01 02:27:27;;;;;;;7.50;2.50;;;;;;;16.03;57.35;96298.31;6843158;28;20214;-81
2024/04/01 02:30:50;;;;;;;5.77;2.53;;;;;;;15.97;56.93;96271.50;6842437;28;20738;-82
2024/04/01 02:34:11;;;;;;;8.13;2.80;;;;;;;16.62;55.34;96278.38;6840497;28;20214;-82
2024/04/01 02:37:32;;;;;;;4.23;2.30;;;;;;;16.73;54.61;96298.84;6839880;28;20259;-82
2024/04/01 02:40:53;;;;;;;9.30;2.73;;;;;;;16.61;54.62;96350.22;6842810;28;20299;-83
2024/04/01 02:44:14;;;;;;;5.17;2.50;;;;;;;16.25;55.18;96355.53;6848330;28;20236;-82
2024/04/01 02:47:37;;;;;;;12.00;3.80;;;;;;;15.26;58.28;96328.09;6843440;28;20276;-81
2024/04/01 02:50:58;;;;;;;5.17;2.67;;;;;;;15.95;57.24;96338.94;6844066;28;20319;-81
2024/04/01 02:54:20;;;;;;;6.63;2.80;;;;;;;16.33;56.12;96333.06;6843087;28;20243;-81
2024/04/01 02:57:43;;;;;;;5.63;2.80;;;;;;;14.97;59.43;96303.00;6841341;28;20292;-82
2024/04/01 03:01:06;;;;;;;6.60;2.77;;;;;;;15.67;58.60;96291.06;6841921;28;20212;-81
2024/04/01 03:04:29;;;;;;;7.87;2.73;;;;;;;16.22;56.17;96299.03;6842448;28;20246;-81
2024/04/01 03:07:50;;;;;;;5.90;2.67;;;;;;;16.10;55.55;96301.44;6841782;28;20254;-82
2024/04/01 03:11:13;;;;;;;5.43;2.50;;;;;;;16.18;55.87;96316.25;6837092;28;20210;-82
2024/04/01 03:14:35;;;;;;;8.83;3.10;;;;;;;16.19;55.38;96282.50;6841979;28;20633;-82
2024/04/01 03:17:56;;;;;;;7.90;2.80;;;;;;;15.27;57.66;96270.81;6841010;28;20281;-82
2024/04/01 03:21:18;;;;;;;11.03;3.90;;;;;;;15.49;57.65;96279.16;6842311;28;20238;-82
2024/04/01 03:24:40;;;;;;;5.70;2.77;;;;;;;15.83;57.19;96274.22;6841637;28;20695;-81
2024/04/01 03:28:01;;;;;;;6.30;3.63;;;;;;;15.60;57.46;96287.94;6840766;28;20229;-82
2024/04/01 03:31:22;;;;;;;10.00;6.87;;;;;;;15.87;57.15;96302.41;6840851;28;20232;-82
2024/04/01 03:34:46;;;;;;;8.23;3.80;;;;;;;16.00;56.44;96315.22;6839658;28;20669;-82
2024/04/01 03:38:10;;;;;;;9.03;2.80;;;;;;;16.07;55.41;96318.34;6839744;28;20315;-82
2024/04/01 03:41:31;;;;;;;7.10;3.17;;;;;;;15.67;56.14;96331.81;6841150;28;20272;-82
2024/04/01 03:44:53;;;;;;;9.90;3.00;;;;;;;15.34;57.63;96330.97;6839811;28;20251;-82
2024/04/01 03:48:14;;;;;;;6.90;3.27;;;;;;;15.56;57.77;96327.66;6839991;28;20231;-81
2024/04/01 03:51:35;;;;;;;5.57;3.03;;;;;;;15.84;57.15;96332.91;6839601;28;20402;-81
2024/04/01 03:54:58;;;;;;;9.13;2.97;;;;;;;16.00;56.17;96330.72;6839563;28;20355;-82
2024/04/01 03:58:19;;;;;;;6.80;2.67;;;;;;;15.42;57.05;96318.66;6838941;28;20604;-82
2024/04/01 04:01:44;;;;;;;7.10;3.00;;;;;;;15.24;58.71;96316.72;6839673;28;20205;-82
2024/04/01 04:05:05;;;;;;;6.47;2.83;;;;;;;15.42;57.98;96297.75;6839068;28;20219;-82
2024/04/01 04:08:28;;;;;;;4.53;2.87;;;;;;;15.33;58.36;96279.72;6838107;28;20247;-81
2024/04/01 04:11:50;;;;;;;3.93;2.60;;;;;;;15.53;57.81;96290.25;6838415;28;20307;-82
2024/04/01 04:15:11;;;;;;;6.00;2.90;;;;;;;15.55;57.43;96307.84;6838163;28;20592;-81
2024/04/01 04:18:32;;;;;;;5.10;3.17;;;;;;;15.39;57.93;96306.47;6837864;28;20389;-82
2024/04/01 04:21:55;;;;;;;5.90;2.80;;;;;;;15.09;58.69;96297.94;6838221;28;20216;-82
2024/04/01 04:25:16;;;;;;;9.07;3.97;;;;;;;15.05;59.41;96310.50;6837822;28;20220;-82
2024/04/01 04:28:38;;;;;;;7.93;3.40;;;;;;;15.22;58.94;96300.75;6836541;28;20320;-81
2024/04/01 04:32:09;;;;;;;8.03;3.60;;;;;;;15.28;59.09;96313.13;6837842;28;20208;-82
2024/04/01 04:35:30;;;;;;;7.33;2.70;;;;;;;15.47;58.71;96303.09;6837125;28;20291;-82
2024/04/01 04:38:52;;;;;;;6.70;3.00;;;;;;;15.06;59.90;96293.13;6837409;28;20236;-81
2024/04/01 04:42:14;;;;;;;5.13;3.10;;;;;;;15.50;59.11;96264.47;6836550;28;20213;-82
2024/04/01 04:45:36;;;;;;;5.40;2.67;;;;;;;15.66;58.44;96274.00;6836888;28;20285;-81
2024/04/01 04:48:57;;;;;;;10.73;4.60;;;;;;;15.34;59.94;96289.47;6835945;28;20732;-82
2024/04/01 04:52:19;;;;;;;7.33;2.70;;;;;;;15.65;58.75;96298.72;6836626;28;20353;-82
2024/04/01 04:55:39;;;;;;;3.60;2.60;;;;;;;15.77;58.21;96312.63;6836293;28;20246;-82
2024/04/01 04:59:01;;;;;;;8.17;3.13;;;;;;;15.44;59.63;96311.81;6835380;28;20252;-82
2024/04/01 05:02:23;;;;;;;6.13;3.00;;;;;;;15.52;60.19;96322.00;6836734;28;20288;-82
2024/04/01 05:05:45;;;;;;;6.80;3.13;;;;;;;15.22;60.58;96318.94;6837890;28;20221;-82
2024/04/01 05:09:08;;;;;;;5.03;3.07;;;;;;;15.42;60.45;96324.09;6834655;28;20221;-82
2024/04/01 05:12:30;;;;;;;5.47;3.30;;;;;;;15.55;59.85;96332.28;6826624;28;20209;-82
2024/04/01 05:15:50;;;;;;;5.70;3.10;;;;;;;15.39;60.40;96341.78;6809942;29;20747;-82
2024/04/01 05:19:13;;;;;;;9.33;3.30;;;;;;;15.55;59.34;96342.34;6814856;29;20227;-82
2024/04/01 05:22:35;;;;;;;3.53;2.90;;;;;;;15.35;60.31;96354.34;6836931;28;20349;-82
2024/04/01 05:25:55;;;;;;;4.50;3.33;;;;;;;15.51;59.74;96372.00;6841943;28;20243;-81
2024/04/01 05:29:17;;;;;;;5.97;3.00;;;;;;;15.52;60.23;96399.97;6841294;28;20245;-82
2024/04/01 05:32:38;;;;;;;4.03;3.17;;;;;;;15.59;59.74;96431.09;6841934;28;20697;-82
2024/04/01 05:36:02;;;;;;;4.90;3.40;;;;;;;15.41;60.67;96461.78;6841676;28;20209;-82
2024/04/01 05:39:25;;;;;;;6.27;3.40;;;;;;;15.45;60.80;96437.56;6841696;28;20317;-82
2024/04/01 05:42:45;;;;;;;7.43;3.57;;;;;;;15.44;60.54;96430.47;6841793;28;20207;-81
2024/04/01 05:46:07;;;;;;;4.97;3.70;;;;;;;15.46;60.11;96450.03;6841781;28;20580;-82
2024/04/01 05:49:27;;;;;;;3.93;3.47;;;;;;;15.89;59.06;96471.38;6841356;28;20232;-81
2024/04/01 05:52:50;;;;;;;6.30;4.20;;;;;;;15.91;58.62;96471.88;6841795;28;20273;-81
2024/04/01 05:56:11;;;;;;;7.73;4.70;;;;;;;15.52;59.30;96471.38;6841980;28;20368;-82
2024/04/01 05:59:32;;;;;;;7.73;5.27;;;;;;;15.58;59.29;96493.84;6841158;28;20574;-82
2024/04/01 06:02:53;;;;;;;7.23;4.90;;;;;;;14.96;61.17;96518.47;6841076;28;20209;-82
2024/04/01 06:06:14;;;;;;;8.30;4.83;;;;;;;14.55;63.14;96519.94;6840638;28;20657;-82
2024/04/01 06:09:36;;;;;;;8.33;5.33;;;;;;;15.14;61.76;96528.56;6840148;28;20750;-81
2024/04/01 06:12:58;;;;;;;6.43;5.73;;;;;;;15.00;62.40;96536.59;6842417;28;20210;-83
2024/04/01 06:16:19;;;;;;;7.47;6.20;;;;;;;15.17;62.26;96536.16;6840966;28;20212;-82
2024/04/01 06:19:40;;;;;;;6.90;5.30;;;;;;;15.35;61.67;96532.69;6837000;28;20323;-82
2024/04/01 06:23:02;;;;;;;6.40;5.73;;;;;;;15.35;62.02;96532.69;6838632;28;20219;-83
2024/04/01 06:26:26;;;;;;;6.80;6.10;;;;;;;15.43;61.96;96542.91;6838626;28;20208;-85
2024/04/01 06:29:47;;;;;;;7.50;5.77;;;;;;;15.44;61.52;96560.81;6815895;28;20259;-83
2024/04/01 06:33:07;;;;;;;8.77;6.50;;;;;;;15.52;61.58;96565.63;6829191;28;20382;-82
2024/04/01 06:36:29;;;;;;;7.70;7.00;;;;;;;15.66;62.20;96586.34;6837891;28;20349;-82
2024/04/01 06:39:53;;;;;;;10.50;7.20;;;;;;;15.71;61.65;96594.44;6839216;28;20396;-82
2024/04/01 06:43:16;;;;;;;11.03;7.07;;;;;;;15.66;61.95;96594.50;6838962;28;20268;-82
2024/04/01 06:46:37;;;;;;;7.67;6.67;;;;;;;15.51;62.53;96580.31;6838523;28;20874;-83
2024/04/01 06:49:59;;;;;;;8.90;6.97;;;;;;;15.74;62.21;96574.03;6839950;28;20289;-83
2024/04/01 06:53:21;;;;;;;8.07;6.57;;;;;;;15.81;61.88;96580.72;6839752;28;20249;-83
2024/04/01 06:56:43;;;;;;;9.67;8.00;;;;;;;15.80;62.09;96578.31;6841340;28;20273;-79
2024/04/01 07:00:07;;;;;;;7.80;7.00;;;;;;;15.67;62.35;96590.69;6841889;28;20238;-81
2024/04/01 07:03:29;;;;;;;7.80;6.97;;;;;;;15.66;62.36;96601.84;6841874;28;20202;-81
2024/04/01 07:06:50;;;;;;;7.67;6.43;;;;;;;15.50;62.62;96609.34;6841362;28;20193;-81
2024/04/01 07:10:11;;;;;;;10.03;7.60;;;;;;;15.31;63.76;96624.75;6841924;28;20246;-80
2024/04/01 07:13:32;;;;;;;8.93;6.80;;;;;;;15.71;62.95;96615.34;6843374;28;20216;-81
2024/04/01 07:16:55;;;;;;;9.93;6.27;;;;;;;15.48;63.01;96618.88;6842687;28;20294;-80
2024/04/01 07:20:16;;;;;;;7.00;6.30;;;;;;;15.35;63.09;96652.97;6841005;28;20271;-82
2024/04/01 07:23:37;;;;;;;7.83;6.27;;;;;;;15.40;63.53;96652.09;6844443;28;20216;-81
2024/04/01 07:26:58;;;;;;;7.57;5.83;;;;;;;15.40;63.32;96635.81;6843074;28;20269;-81
2024/04/01 07:30:19;;;;;;;6.53;5.60;;;;;;;14.96;64.76;96660.38;6840368;28;20292;-81
2024/04/01 07:33:41;;;;;;;8.10;6.03;;;;;;;15.38;63.88;96662.44;6838723;28;20646;-82
2024/04/01 07:37:03;;;;;;;6.33;5.23;;;;;;;15.42;63.39;96663.47;6838633;28;20202;-80
2024/04/01 07:40:23;;;;;;;5.07;4.27;;;;;;;15.50;63.48;96660.13;6838981;28;20301;-82
2024/04/01 07:43:45;;;;;;;4.00;3.63;;;;;;;15.39;63.66;96659.44;6839546;28;20291;-81
2024/04/01 07:47:06;;;;;;;5.27;3.73;;;;;;;15.89;62.48;96687.94;6838373;28;20346;-80
2024/04/01 07:50:29;;;;;;;6.00;3.87;;;;;;;15.69;62.62;96683.56;6840537;28;20705;-83
2024/04/01 07:53:49;;;;;;;6.00;3.97;;;;;;;15.37;62.36;96667.06;6839498;28;20210;-85
2024/04/01 07:57:12;;;;;;;6.57;3.80;;;;;;;15.70;62.59;96722.41;6828705;28;20204;-85
2024/04/01 08:00:37;;;;;;;6.30;3.97;;;;;;;15.43;62.66;96714.78;6838828;28;20301;-81
2024/04/01 08:03:57;;;;;;;5.77;3.67;;;;;;;15.64;63.07;96748.00;6840448;28;20224;-80
2024/04/01 08:07:21;;;;;;;6.20;4.23;;;;;;;15.72;62.35;96734.59;6842960;28;20206;-81
2024/04/01 08:10:45;;;;;;;8.57;3.87;;;;;;;15.71;62.82;96746.56;6845429;28;20731;-83
2024/04/01 08:14:07;;;;;;;4.90;3.50;;;;;;;15.66;62.81;96795.53;6839131;28;20701;-83
2024/04/01 08:17:27;;;;;;;4.20;3.47;;;;;;;15.86;62.96;96799.97;6836214;28;20297;-83
2024/04/01 08:20:49;;;;;;;6.00;4.03;;;;;;;16.04;62.79;96804.66;6838587;28;20362;-84
2024/04/01 08:24:11;;;;;;;4.23;3.83;;;;;;;16.31;62.12;96818.47;6838953;28;20275;-82
2024/04/01 08:27:32;;;;;;;5.87;3.97;;;;;;;16.40;61.49;96827.69;6835783;28;20347;-83
2024/04/01 08:30:54;;;;;;;15.37;7.70;;;;;;;15.62;62.36;96854.22;6837797;28;20238;-80
2024/04/01 08:34:15;;;;;;;2.87;1.93;;;;;;;15.24;62.84;96827.88;6837752;28;20245;-81
2024/04/01 08:37:36;;;;;;;1.80;1.60;;;;;;;15.36;62.55;96851.97;6836937;28;20238;-82
2024/04/01 08:41:04;;;;;;;2.00;1.80;;;;;;;15.47;60.13;96867.94;6837850;28;20291;-83
2024/04/01 08:44:25;;;;;;;1.93;1.20;;;;;;;15.42;60.27;96870.69;6838391;28;20373;-82
2024/04/01 08:47:49;;;;;;;1.23;1.13;;;;;;;14.92;60.51;96843.00;6837016;28;20628;-80
2024/04/01 08:51:11;;;;;;;1.80;1.27;;;;;;;15.17;60.12;96854.50;6835843;28;20209;-82
2024/04/01 08:54:32;;;;;;;1.10;1.10;;;;;;;15.36;59.89;96860.94;6833804;28;20560;-82
2024/04/01 08:57:55;;;;;;;1.27;1.20;;;;;;;15.00;60.77;96869.56;6834272;28;20252;-82
2024/04/01 09:01:16;;;;;;;2.27;1.30;;;;;;;15.46;59.93;96857.34;6834830;28;20693;-87
2024/04/01 09:04:38;;;;;;;1.27;1.20;;;;;;;15.80;60.24;96863.59;6835293;28;20608;-82
2024/04/01 09:07:59;;;;;;;1.20;1.10;;;;;;;15.87;59.47;96845.06;6835336;28;20380;-84
2024/04/01 09:11:22;;;;;;;1.57;1.10;;;;;;;16.62;57.94;96866.84;6835711;28;20296;-83
2024/04/01 09:14:44;;;;;;;2.00;1.20;;;;;;;16.37;56.67;96894.31;6836606;28;20303;-84
2024/04/01 09:18:06;;;;;;;1.07;1.03;;;;;;;16.09;56.40;96892.41;6836549;28;20234;-82
2024/04/01 09:21:26;;;;;;;1.67;1.10;;;;;;;16.30;56.23;96893.00;6836210;28;20299;-84
2024/04/01 09:24:49;;;;;;;1.20;1.10;;;;;;;15.74;56.54;96908.22;6835924;28;20681;-81
2024/04/01 09:28:10;;;;;;;0.87;0.87;;;;;;;16.08;54.69;96907.09;6835270;28;20232;-82
2024/04/01 09:31:32;;;;;;;1.20;1.20;;;;;;;15.58;56.15;96929.22;6837150;28;20267;-81
2024/04/01 09:34:57;;;;;;;0.90;0.90;;;;;;;16.04;54.87;96932.41;6836750;28;20263;-81
2024/04/01 09:38:18;;;;;;;1.70;1.60;;;;;;;15.70;55.67;96918.81;6819199;29;20314;-81
2024/04/01 09:41:39;;;;;;;1.50;1.40;;;;;;;15.76;56.27;96928.53;6833752;28;20285;-81
2024/04/01 09:45:00;;;;;;;1.43;1.43;;;;;;;16.22;54.24;96942.59;6833415;28;20354;-80
2024/04/01 09:48:25;;;;;;;1.00;1.00;;;;;;;16.21;54.28;96954.56;6832965;28;20240;-80
2024/04/01 09:51:47;;;;;;;1.57;1.47;;;;;;;15.31;54.81;96917.13;6830526;28;20216;-80
2024/04/01 09:55:12;;;;;;;1.17;1.17;;;;;;;15.81;53.67;96950.25;6832335;28;20235;-80
2024/04/01 09:58:53;;;;;;;1.50;1.40;;;;;;;16.36;53.13;96963.41;6833290;28;20312;-86
2024/04/01 10:02:42;;;;;;;1.00;1.00;;;;;;;15.93;50.62;96964.28;6835572;28;20284;-83
2024/04/01 10:06:41;;;;;;;0.97;0.97;;;;;;;16.06;52.88;96988.13;6837883;28;20371;-80
2024/04/01 10:10:23;;;;;;;1.33;1.00;;;;;;;16.15;51.48;96982.91;6845459;28;20222;-81
2024/04/01 10:14:16;;;;;;;0.87;0.87;;;;;;;16.27;50.29;96965.09;6842603;28;20247;-80
2024/04/01 10:18:03;;;;;;;0.90;0.90;;;;;;;15.49;52.52;96965.41;6830107;29;20587;-81
2024/04/01 10:21:55;;;;;;;1.10;1.10;;;;;;;15.97;52.04;96988.97;6838487;28;20313;-80
2024/04/01 10:25:45;;;;;;;1.77;1.67;;;;;;;15.87;52.35;96998.03;6826920;28;20226;-80
2024/04/01 10:29:36;;;;;;;1.33;1.33;;;;;;;16.43;49.64;96996.53;6811596;29;20324;-81
2024/04/01 10:33:35;;;;;;;0.87;0.87;;;;;;;16.23;50.58;97018.41;6797397;29;20211;-80
2024/04/01 10:37:15;;;;;;;2.43;1.73;;;;;;;16.64;48.12;97029.81;6789097;29;20592;-80
2024/04/01 10:40:57;;;;;;;1.70;1.60;;;;;;;16.37;48.69;97018.59;6786624;29;20714;-81
2024/04/01 10:44:45;;;;;;;1.10;1.10;;;;;;;17.01;48.84;97043.59;6792974;29;20198;-80
2024/04/01 10:48:16;;;;;;;1.00;1.00;;;;;;;15.78;49.67;97043.22;6811994;29;20317;-81
2024/04/01 10:51:51;;;;;;;1.07;1.07;;;;;;;15.70;49.56;97046.50;6813676;29;20197;-80
2024/04/01 10:55:32;;;;;;;1.00;1.00;;;;;;;16.32;49.08;97062.97;6815544;29;20359;-83
2024/04/01 10:59:23;;;;;;;1.13;1.13;;;;;;;16.26;48.33;97061.38;6813122;29;20610;-82
2024/04/01 11:03:38;;;;;;;1.30;1.30;;;;;;;15.83;49.26;97067.63;6814199;29;20201;-81
2024/04/01 11:07:11;;;;;;;0.90;0.90;;;;;;;15.04;48.78;97082.31;6733523;29;20787;-81
2024/04/01 11:10:36;;;;;;;1.93;1.00;;;;;;;15.17;48.92;97101.53;6787004;29;20235;-82
2024/04/01 11:13:59;;;;;;;1.00;0.90;;;;;;;15.17;49.03;97095.31;6786673;29;20587;-80
2024/04/01 11:17:21;;;;;;;0.80;0.80;;;;;;;15.26;48.05;97137.91;6803019;29;20241;-83
2024/04/01 11:20:46;;;;;;;1.00;1.00;;;;;;;14.93;48.91;97127.63;6808852;29;20236;-82
2024/04/01 11:24:17;;;;;;;0.90;0.90;;;;;;;15.11;47.71;97124.34;6811423;29;20209;-81
2024/04/01 11:28:00;;;;;;;1.10;1.10;;;;;;;15.53;47.14;97129.44;6811433;29;20225;-82
2024/04/01 11:31:24;;;;;;;1.40;1.40;;;;;;;15.17;47.42;97108.88;6810644;29;20354;-81
2024/04/01 11:34:49;;;;;;;1.07;1.07;;;;;;;16.02;46.52;97133.84;6808212;29;20205;-82
2024/04/01 11:38:21;;;;;;;1.27;1.20;;;;;;;15.87;48.03;97135.81;6808329;29;20227;-80
2024/04/01 11:41:46;;;;;;;0.80;0.77;;;;;;;15.98;46.85;97143.63;6799532;29;20305;-82
2024/04/01 11:45:09;;;;;;;1.10;1.10;;;;;;;16.16;46.41;97144.94;6803038;29;20682;-82
2024/04/01 11:48:31;;;;;;;0.90;0.90;;;;;;;15.64;47.89;97161.72;6802261;29;20234;-81
2024/04/01 11:51:53;;;;;;;0.90;0.90;;;;;;;16.20;47.48;97167.72;6797211;29;20347;-82
2024/04/01 11:55:15;;;;;;;0.80;0.80;;;;;;;15.31;48.51;97203.06;6794366;29;20246;-82
2024/04/01 11:58:47;;;;;;;0.80;0.80;;;;;;;15.38;48.55;97224.50;6810986;29;20297;-82
2024/04/01 12:02:12;;;;;;;1.00;1.00;;;;;;;15.32;47.82;97239.16;6808884;29;20709;-82
2024/04/01 12:05:46;;;;;;;0.97;0.97;;;;;;;14.83;50.06;97246.22;6802936;29;20638;-81
2024/04/01 12:09:12;;;;;;;1.00;1.00;;;;;;;15.65;48.73;97261.16;6801950;29;20773;-82
2024/04/01 12:12:34;;;;;;;1.07;1.07;;;;;;;15.09;49.09;97262.25;6793204;29;20302;-81
2024/04/01 12:15:55;;;;;;;1.00;1.00;;;;;;;15.53;49.11;97266.06;6799994;29;20220;-81
2024/04/01 12:19:17;;;;;;;1.20;1.13;;;;;;;15.09;48.39;97259.53;6789102;29;20917;-81
2024/04/01 12:22:41;;;;;;;1.37;1.33;;;;;;;15.53;46.93;97265.25;6799664;29;20285;-82
2024/04/01 12:26:09;;;;;;;1.10;1.10;;;;;;;15.69;46.23;97259.50;6802919;29;20238;-81
2024/04/01 12:29:32;;;;;;;1.60;1.50;;;;;;;15.90;46.23;97263.81;6794367;29;20242;-82
2024/04/01 12:32:55;;;;;;;1.27;1.17;;;;;;;15.96;45.88;97270.88;6808210;29;20577;-81
2024/04/01 12:36:18;;;;;;;1.30;1.30;;;;;;;16.19;45.59;97278.41;6795538;29;20301;-81
2024/04/01 12:39:45;;;;;;;1.03;1.03;;;;;;;16.35;44.76;97273.72;6805527;29;20242;-81
2024/04/01 12:43:07;;;;;;;1.10;1.10;;;;;;;16.47;43.78;97287.84;6783558;29;20238;-81
2024/04/01 12:46:29;;;;;;;1.20;1.20;;;;;;;16.01;45.28;97294.50;6793362;29;20225;-81
2024/04/01 12:49:52;;;;;;;0.83;0.83;;;;;;;15.50;45.57;97314.66;6796279;29;20235;-81
2024/04/01 12:53:33;;;;;;;0.97;0.97;;;;;;;15.94;45.19;97327.41;6807495;29;20270;-81
2024/04/01 12:57:03;;;;;;;0.70;0.70;;;;;;;15.76;45.03;97335.31;6799593;29;20202;-80
2024/04/01 13:00:29;;;;;;;1.07;1.00;;;;;;;16.00;44.44;97349.97;6794864;29;20311;-81
2024/04/01 13:04:04;;;;;;;0.93;0.93;;;;;;;16.73;42.74;97346.50;6809937;29;20214;-79
2024/04/01 13:07:35;;;;;;;0.83;0.83;;;;;;;16.57;42.99;97343.03;6801037;29;20354;-80
2024/04/01 13:11:00;;;;;;;1.10;1.10;;;;;;;16.95;41.82;97347.75;6795386;29;20234;-80
2024/04/01 13:14:35;;;;;;;1.00;1.00;;;;;;;17.02;42.30;97331.91;6801851;29;20214;-82
2024/04/01 13:17:59;;;;;;;1.10;1.10;;;;;;;16.85;42.34;97353.25;6799601;29;20226;-80
2024/04/01 13:21:24;;;;;;;2.57;2.10;;;;;;;16.52;42.92;97344.97;6807040;29;20778;-81
2024/04/01 13:24:51;;;;;;;3.97;3.10;;;;;;;17.23;41.56;97330.66;6804677;29;20239;-81
2024/04/01 13:28:19;;;;;;;0.80;0.80;;;;;;;16.68;41.92;97341.09;6806538;29;20232;-79
2024/04/01 13:31:47;;;;;;;0.77;0.77;;;;;;;16.42;42.75;97336.81;6796447;29;20233;-81
2024/04/01 13:35:19;;;;;;;1.10;1.10;;;;;;;16.27;43.91;97359.41;6794776;29;20210;-81
2024/04/01 13:38:55;;;;;;;2.00;1.90;;;;;;;16.50;42.85;97377.88;6806384;29;20222;-81
2024/04/01 13:42:24;;;;;;;2.57;2.33;;;;;;;15.82;43.10;97380.44;6807456;29;20225;-81
2024/04/01 13:45:54;;;;;;;1.20;1.20;;;;;;;16.14;42.77;97381.75;6809825;29;20238;-81
2024/04/01 13:49:35;;;;;;;1.03;1.03;;;;;;;16.46;43.16;97401.28;6811921;29;20599;-82
2024/04/01 13:53:23;;;;;;;1.30;1.20;;;;;;;16.99;41.81;97399.72;6809169;29;20334;-84
2024/04/01 13:56:55;;;;;;;1.03;1.03;;;;;;;17.25;40.42;97418.38;6803244;29;20687;-82
2024/04/01 14:00:22;;;;;;;1.23;0.93;;;;;;;16.61;41.38;97414.84;6795700;29;20307;-81
2024/04/01 14:03:53;;;;;;;2.00;1.90;;;;;;;16.10;42.72;97388.00;6768490;29;1104922;-84
2024/04/01 14:07:17;;;;;;;2.00;1.90;;;;;;;16.43;42.28;97410.00;6804550;29;20229;-80
2024/04/01 14:10:45;;;;;;;1.10;1.10;;;;;;;16.18;42.68;97395.59;6806310;29;20236;-82
2024/04/01 14:14:10;;;;;;;1.00;1.00;;;;;;;16.39;41.86;97421.72;6807161;29;20683;-82
2024/04/01 14:17:40;;;;;;;1.10;1.10;;;;;;;16.29;41.70;97429.84;6806249;29;20680;-82
2024/04/01 14:21:01;;;;;;;1.40;1.30;;;;;;;17.30;40.71;97428.44;6813136;29;20270;-81
2024/04/01 14:24:22;;;;;;;1.30;1.20;;;;;;;16.86;39.80;97413.97;6814865;29;20262;-81
2024/04/01 14:27:46;;;;;;;1.23;1.20;;;;;;;17.00;40.04;97442.19;6809219;29;20217;-81
2024/04/01 14:31:07;;;;;;;0.97;0.97;;;;;;;16.34;40.48;97452.41;6808282;29;20249;-86
2024/04/01 14:34:28;;;;;;;1.10;1.10;;;;;;;16.36;40.00;97447.53;6798832;29;20308;-81
2024/04/01 14:37:49;;;;;;;1.00;1.00;;;;;;;16.68;40.20;97428.19;6798991;29;20239;-81
2024/04/01 14:41:11;;;;;;;0.80;0.80;;;;;;;16.99;39.11;97446.03;6806738;29;20329;-80
2024/04/01 14:44:33;;;;;;;1.03;1.03;;;;;;;17.67;37.21;97432.31;6811618;29;20234;-80
2024/04/01 14:47:55;;;;;;;1.63;1.20;;;;;;;16.90;38.15;97440.34;6802558;29;20277;-80
2024/04/01 14:51:16;;;;;;;1.83;1.73;;;;;;;16.89;38.11;97451.50;6806874;29;20301;-80
2024/04/01 14:54:38;;;;;;;1.10;1.10;;;;;;;17.50;37.11;97447.41;6812680;29;20252;-81
2024/04/01 14:57:59;;;;;;;0.97;0.97;;;;;;;17.15;38.63;97459.28;6813389;29;20822;-80
2024/04/01 15:01:22;;;;;;;0.80;0.80;;;;;;;16.81;39.42;97444.72;6809491;29;20293;-80
2024/04/01 15:04:44;;;;;;;0.90;0.90;;;;;;;17.15;37.80;97432.06;6801544;29;20219;-80
2024/04/01 15:08:09;;;;;;;1.23;1.13;;;;;;;17.54;38.28;97453.94;6802960;29;20258;-80
2024/04/01 15:11:40;;;;;;;1.60;1.30;;;;;;;17.34;38.70;97446.66;6809276;29;20693;-80
2024/04/01 15:15:03;;;;;;;1.23;1.13;;;;;;;17.53;38.69;97457.75;6809046;29;20228;-81
2024/04/01 15:18:25;;;;;;;1.00;1.00;;;;;;;17.45;38.67;97459.16;6818198;29;20237;-82
2024/04/01 15:21:48;;;;;;;1.13;1.00;;;;;;;17.01;39.45;97444.66;6818763;29;20377;-81
2024/04/01 15:25:08;;;;;;;0.90;0.90;;;;;;;16.98;40.31;97474.34;6806502;29;20233;-80
2024/04/01 15:28:30;;;;;;;1.13;1.10;;;;;;;16.73;40.31;97475.22;6808071;29;20239;-80
2024/04/01 15:31:53;;;;;;;1.10;1.10;;;;;;;16.31;41.71;97455.69;6793926;29;20207;-80
2024/04/01 15:35:15;;;;;;;2.73;2.50;;;;;;;16.36;41.78;97469.28;6801620;29;20301;-80
2024/04/01 15:38:37;;;;;;;1.50;1.40;;;;;;;16.65;40.99;97455.94;6796609;29;20265;-81
2024/04/01 15:41:59;;;;;;;1.20;1.20;;;;;;;16.35;41.88;97464.91;6792453;29;20287;-80
2024/04/01 15:45:21;;;;;;;1.17;1.17;;;;;;;16.52;41.86;97472.84;6801897;29;20297;-81
2024/04/01 15:48:41;;;;;;;1.70;1.60;;;;;;;17.07;40.79;97470.78;6804207;29;20315;-80
2024/04/01 15:52:06;;;;;;;1.90;1.53;;;;;;;16.94;41.05;97459.66;6803688;29;20218;-82
2024/04/01 15:55:27;;;;;;;1.50;1.40;;;;;;;17.10;41.05;97474.84;6796673;29;20880;-80
2024/04/01 15:58:51;;;;;;;1.10;1.10;;;;;;;16.57;41.50;97464.66;6802897;29;20696;-80
2024/04/01 16:02:16;;;;;;;1.00;1.00;;;;;;;16.63;41.45;97466.28;6795821;29;20273;-82
2024/04/01 16:05:37;;;;;;;1.87;1.30;;;;;;;16.35;42.81;97477.72;6803165;29;20220;-79